Time;durP1;ratioP1;P1;durP2;ratioP2;P2;SDS_P1;SDS_P2;PMS_P1;PMS_P2;Temp;Humidity;BMP_temperature;BMP_pressure;BME280_temperature;BME280_humidity;BME280_pressure;Samples;Min_cycle;Max_cycle;Signal;HPM_P1;HPM_P2
2022/04/17 00:00:00;;;;;;;3.25;3.00;;;16.90;16.40;;;;;;5051053;28;20051;-63
2022/04/17 00:02:27;;;;;;;3.95;3.08;;;16.80;16.40;;;;;;5034924;28;20487;-63
2022/04/17 00:04:53;;;;;;;3.35;3.05;;;16.70;16.30;;;;;;5034242;28;20024;-63
2022/04/17 00:07:19;;;;;;;3.10;2.70;;;16.70;16.40;;;;;;5051388;28;20020;-63
2022/04/17 00:09:44;;;;;;;3.47;3.10;;;16.60;16.20;;;;;;5051072;28;20471;-63
2022/04/17 00:12:11;;;;;;;3.20;2.40;;;16.70;16.60;;;;;;5033690;28;20052;-63
2022/04/17 00:14:37;;;;;;;7.10;2.78;;;16.60;16.50;;;;;;5049016;28;20443;-64
2022/04/17 00:17:03;;;;;;;3.22;2.70;;;16.60;16.40;;;;;;5054557;28;20036;-63
2022/04/17 00:19:29;;;;;;;4.22;2.72;;;16.50;16.40;;;;;;5052526;28;20029;-64
2022/04/17 00:21:55;;;;;;;4.45;2.80;;;16.50;16.80;;;;;;5065763;28;20043;-62
2022/04/17 00:24:20;;;;;;;4.13;2.38;;;16.40;16.60;;;;;;5019957;28;20049;-62
2022/04/17 00:26:46;;;;;;;3.28;2.47;;;16.40;16.60;;;;;;5042085;28;20082;-62
2022/04/17 00:29:12;;;;;;;3.80;2.65;;;16.50;17.80;;;;;;5052029;28;20028;-62
2022/04/17 00:31:38;;;;;;;3.10;2.30;;;16.30;16.40;;;;;;5034790;28;20027;-62
2022/04/17 00:34:03;;;;;;;3.72;2.35;;;16.40;19.40;;;;;;5052043;28;20037;-62
2022/04/17 00:36:29;;;;;;;2.90;2.05;;;16.20;24.00;;;;;;5050975;28;20029;-62
2022/04/17 00:38:55;;;;;;;2.17;1.77;;;16.40;19.90;;;;;;5052070;28;20064;-62
2022/04/17 00:41:21;;;;;;;5.57;2.15;;;16.30;19.00;;;;;;5060671;28;20370;-62
2022/04/17 00:43:48;;;;;;;2.25;2.05;;;16.20;16.60;;;;;;5065164;28;20033;-62
2022/04/17 00:46:14;;;;;;;2.97;1.90;;;16.20;16.50;;;;;;5050107;28;20043;-62
2022/04/17 00:48:40;;;;;;;2.20;1.85;;;16.10;16.50;;;;;;5051622;28;20028;-62
2022/04/17 00:51:06;;;;;;;4.63;1.80;;;16.10;16.70;;;;;;5058558;28;20028;-62
2022/04/17 00:53:34;;;;;;;2.42;2.22;;;16.20;16.60;;;;;;5044794;28;20041;-62
2022/04/17 00:56:00;;;;;;;3.00;2.20;;;16.10;16.70;;;;;;5055167;28;20055;-63
2022/04/17 00:58:28;;;;;;;2.10;1.90;;;16.10;16.60;;;;;;5070426;28;20028;-62
2022/04/17 01:00:54;;;;;;;2.90;1.73;;;16.10;16.80;;;;;;5058002;28;20121;-62
2022/04/17 01:03:19;;;;;;;2.08;1.90;;;16.00;16.90;;;;;;5050553;28;20534;-63
2022/04/17 01:05:46;;;;;;;3.80;1.90;;;16.00;17.00;;;;;;5059570;28;20061;-62
2022/04/17 01:08:13;;;;;;;3.33;2.00;;;16.00;16.90;;;;;;5051858;28;20032;-63
2022/04/17 01:10:39;;;;;;;4.03;2.38;;;16.00;17.00;;;;;;5048627;28;20033;-63
2022/04/17 01:13:08;;;;;;;2.28;1.77;;;15.90;17.20;;;;;;5046344;28;20033;-64
2022/04/17 01:15:35;;;;;;;2.95;1.80;;;15.90;17.20;;;;;;5050517;28;20082;-63
2022/04/17 01:18:00;;;;;;;2.58;1.67;;;15.90;17.20;;;;;;5070802;28;20431;-63
2022/04/17 01:20:26;;;;;;;3.42;1.73;;;15.90;17.30;;;;;;5068633;28;20112;-63
2022/04/17 01:28:21;;;;;;;3.45;1.73;;;15.80;17.30;;;;;;5056049;28;20085;-64
2022/04/17 01:30:52;;;;;;;2.22;1.80;;;15.90;17.30;;;;;;5060706;28;20028;-64
2022/04/17 01:33:18;;;;;;;4.22;1.83;;;15.80;17.20;;;;;;5036592;28;20062;-64
2022/04/17 01:35:43;;;;;;;4.28;2.30;;;15.80;17.20;;;;;;5066479;28;20021;-63
2022/04/17 01:38:09;;;;;;;1.85;1.25;;;15.80;17.20;;;;;;5050849;28;20393;-64
2022/04/17 01:40:35;;;;;;;3.15;2.00;;;15.70;17.30;;;;;;5051003;28;20067;-64
2022/04/17 01:43:00;;;;;;;2.00;1.33;;;15.70;17.40;;;;;;5070499;28;20048;-63
2022/04/17 01:45:26;;;;;;;4.53;1.58;;;15.80;17.50;;;;;;5069559;28;20031;-64
2022/04/17 01:47:53;;;;;;;2.80;1.27;;;15.70;17.40;;;;;;5053056;28;20036;-64
2022/04/17 01:50:18;;;;;;;1.45;1.23;;;15.60;17.30;;;;;;5050647;28;20028;-63
2022/04/17 01:52:44;;;;;;;3.08;1.30;;;15.60;17.30;;;;;;5068006;28;20025;-64
2022/04/17 01:55:09;;;;;;;2.92;1.30;;;15.60;17.30;;;;;;5070533;28;20044;-64
2022/04/17 01:57:35;;;;;;;1.70;1.40;;;15.60;17.30;;;;;;5052194;28;20040;-63
2022/04/17 02:00:01;;;;;;;3.00;1.15;;;15.50;17.30;;;;;;5050672;28;20504;-63
2022/04/17 02:02:27;;;;;;;2.28;1.20;;;15.50;17.20;;;;;;5050860;28;20164;-64
2022/04/17 02:04:52;;;;;;;1.50;1.10;;;15.40;17.30;;;;;;5036640;28;20386;-64
2022/04/17 02:07:18;;;;;;;1.58;1.15;;;15.40;17.30;;;;;;5067241;28;20032;-64
2022/04/17 02:09:43;;;;;;;1.67;1.40;;;15.40;17.20;;;;;;5074344;28;20024;-64
2022/04/17 02:12:09;;;;;;;2.03;1.13;;;15.40;17.20;;;;;;5059900;28;20447;-64
2022/04/17 02:14:35;;;;;;;2.50;1.20;;;15.50;17.30;;;;;;5054216;28;20119;-64
2022/04/17 02:17:00;;;;;;;2.83;1.30;;;15.40;17.10;;;;;;5052871;28;20123;-64
2022/04/17 02:19:26;;;;;;;1.80;0.95;;;15.40;17.10;;;;;;5054258;28;20394;-63
2022/04/17 02:21:51;;;;;;;1.98;1.25;;;15.30;17.30;;;;;;5053890;28;20533;-64
2022/04/17 02:24:17;;;;;;;2.60;1.25;;;15.30;17.40;;;;;;5056054;28;20050;-64
2022/04/17 02:26:42;;;;;;;1.88;1.23;;;15.30;17.00;;;;;;5072959;28;20113;-64
2022/04/17 02:29:08;;;;;;;2.58;1.02;;;15.20;17.10;;;;;;5075001;28;20025;-63
2022/04/17 02:31:34;;;;;;;1.83;0.90;;;15.20;17.10;;;;;;5065884;28;20068;-63
2022/04/17 02:34:00;;;;;;;1.40;1.23;;;15.30;17.00;;;;;;5053800;28;20454;-63
2022/04/17 02:36:26;;;;;;;1.60;1.08;;;15.30;16.70;;;;;;5059691;28;20013;-63
2022/04/17 02:38:53;;;;;;;2.00;0.90;;;15.30;16.60;;;;;;5074581;28;20028;-63
2022/04/17 02:41:19;;;;;;;1.30;1.00;;;15.30;16.70;;;;;;5050037;28;20441;-63
2022/04/17 02:43:45;;;;;;;1.55;1.05;;;15.30;16.50;;;;;;5054276;28;20158;-63
2022/04/17 02:46:10;;;;;;;1.52;1.25;;;15.20;16.30;;;;;;5041158;28;20090;-63
2022/04/17 02:48:36;;;;;;;1.95;1.17;;;15.20;16.30;;;;;;5035588;28;20078;-63
2022/04/17 02:51:02;;;;;;;1.67;0.95;;;15.20;16.30;;;;;;5053273;28;20615;-64
2022/04/17 02:53:30;;;;;;;1.67;1.33;;;15.10;16.40;;;;;;5054274;28;20090;-63
2022/04/17 02:55:56;;;;;;;2.25;1.08;;;15.00;16.60;;;;;;5035282;28;20052;-64
2022/04/17 02:58:21;;;;;;;2.45;1.00;;;15.00;16.70;;;;;;5071281;28;20042;-64
2022/04/17 03:06:30;;;;;;;2.42;1.15;;;;;;;;;;5030324;28;20037;-63
2022/04/17 03:08:56;;;;;;;1.77;1.00;;;;;;;;;;5054024;28;20441;-64
2022/04/17 03:11:21;;;;;;;4.32;1.25;;;14.80;16.00;;;;;;5057282;28;20029;-63
2022/04/17 03:13:48;;;;;;;1.67;1.17;;;14.80;16.50;;;;;;5073680;28;20036;-63
2022/04/17 03:16:15;;;;;;;1.30;1.20;;;14.80;16.20;;;;;;5070187;28;20577;-63
2022/04/17 03:18:40;;;;;;;2.10;1.10;;;14.80;15.90;;;;;;5073838;28;20025;-63
2022/04/17 03:21:06;;;;;;;1.80;1.02;;;14.80;15.80;;;;;;5052186;28;20281;-64
2022/04/17 03:23:32;;;;;;;1.52;1.10;;;14.80;15.70;;;;;;5052757;28;20068;-63
2022/04/17 03:25:57;;;;;;;2.00;1.02;;;14.80;15.60;;;;;;5053342;28;20394;-63
2022/04/17 03:28:23;;;;;;;1.35;1.25;;;14.80;15.60;;;;;;5073865;28;20102;-63
2022/04/17 03:30:49;;;;;;;2.10;1.30;;;14.70;15.50;;;;;;5073870;28;20454;-63
2022/04/17 03:33:14;;;;;;;1.77;1.40;;;14.80;15.40;;;;;;5053178;28;20081;-63
2022/04/17 03:35:40;;;;;;;1.48;1.05;;;14.70;15.60;;;;;;5053791;28;20025;-63
2022/04/17 03:38:06;;;;;;;2.58;1.30;;;14.80;15.50;;;;;;5070248;28;20386;-63
2022/04/17 03:40:31;;;;;;;1.33;1.17;;;14.70;15.10;;;;;;5062871;28;20070;-63
2022/04/17 03:42:58;;;;;;;2.92;0.98;;;14.70;15.00;;;;;;5052391;28;20482;-63
2022/04/17 03:45:24;;;;;;;1.80;1.40;;;14.80;14.80;;;;;;5053385;28;20036;-63
2022/04/17 03:47:50;;;;;;;1.60;1.50;;;14.60;14.60;;;;;;5067287;28;20476;-63
2022/04/17 03:50:16;;;;;;;4.07;1.23;;;14.60;14.60;;;;;;5054105;28;20033;-63
2022/04/17 03:52:43;;;;;;;3.97;1.10;;;14.60;14.40;;;;;;5034694;28;20032;-63
2022/04/17 03:55:10;;;;;;;1.90;1.23;;;14.60;14.30;;;;;;5052279;28;20106;-64
2022/04/17 03:57:36;;;;;;;1.42;1.30;;;14.60;14.50;;;;;;5060806;28;20079;-64
2022/04/17 04:00:05;;;;;;;1.25;0.98;;;14.70;14.20;;;;;;5053042;28;20441;-63
2022/04/17 04:02:31;;;;;;;3.60;1.38;;;14.50;14.10;;;;;;5033770;28;20510;-63
2022/04/17 04:04:57;;;;;;;3.50;1.20;;;14.60;14.10;;;;;;5052927;28;20111;-63
2022/04/17 04:07:24;;;;;;;2.90;1.42;;;14.50;13.90;;;;;;5062304;28;20078;-63
2022/04/17 04:09:49;;;;;;;1.63;1.27;;;14.50;14.00;;;;;;5071240;28;20396;-63
2022/04/17 04:12:15;;;;;;;2.25;1.10;;;14.50;14.00;;;;;;5061722;28;20021;-63
2022/04/17 04:14:41;;;;;;;1.95;1.20;;;14.40;14.00;;;;;;5051743;28;20033;-63
2022/04/17 04:17:06;;;;;;;3.42;1.02;;;14.40;13.70;;;;;;5059538;28;20025;-63
2022/04/17 04:19:32;;;;;;;1.80;1.23;;;14.30;14.10;;;;;;5072578;28;20028;-63
2022/04/17 04:21:58;;;;;;;1.50;1.40;;;14.30;14.20;;;;;;5070403;28;20099;-63
2022/04/17 04:24:24;;;;;;;1.70;1.60;;;14.30;14.10;;;;;;5070361;28;20077;-62
2022/04/17 04:29:36;;;;;;;2.05;1.67;;;14.30;14.00;;;;;;5073002;28;20504;-63
2022/04/17 04:32:02;;;;;;;2.38;1.58;;;14.20;13.90;;;;;;5057316;28;20211;-63
2022/04/17 04:34:27;;;;;;;2.78;1.42;;;14.20;14.00;;;;;;5072330;28;20404;-63
2022/04/17 04:36:53;;;;;;;2.50;1.30;;;14.10;14.00;;;;;;5065538;28;20021;-63
2022/04/17 04:39:19;;;;;;;2.42;1.52;;;14.10;13.90;;;;;;5052684;28;20151;-62
2022/04/17 04:41:45;;;;;;;4.32;1.70;;;14.10;13.70;;;;;;5052214;28;20024;-62
2022/04/17 04:44:11;;;;;;;6.55;1.55;;;14.20;13.80;;;;;;5052048;28;20120;-63
2022/04/17 04:46:38;;;;;;;3.45;1.77;;;14.10;13.70;;;;;;5052870;28;20025;-63
2022/04/17 04:51:48;;;;;;;4.85;1.60;;;14.00;13.50;;;;;;5063088;28;20177;-63
2022/04/17 04:54:13;;;;;;;2.40;1.13;;;13.90;13.50;;;;;;5072034;28;20060;-62
2022/04/17 04:56:39;;;;;;;3.10;1.65;;;14.00;13.20;;;;;;5047681;28;20136;-63
2022/04/17 04:59:05;;;;;;;2.58;1.40;;;14.00;12.80;;;;;;5034092;28;20029;-63
2022/04/17 05:01:31;;;;;;;6.53;1.70;;;13.90;12.80;;;;;;5051028;28;20017;-63
2022/04/17 05:03:56;;;;;;;4.68;1.75;;;13.80;12.70;;;;;;5051994;28;20075;-64
2022/04/17 05:06:22;;;;;;;3.17;1.70;;;13.80;12.80;;;;;;5051167;28;20036;-63
2022/04/17 05:08:47;;;;;;;4.32;2.00;;;13.80;12.80;;;;;;5034001;28;20025;-64
2022/04/17 05:11:13;;;;;;;5.82;1.80;;;13.80;12.10;;;;;;5051957;28;20475;-63
2022/04/17 05:13:39;;;;;;;4.50;1.75;;;13.80;12.20;;;;;;5049597;28;20422;-63
2022/04/17 05:16:06;;;;;;;4.88;2.10;;;13.70;12.00;;;;;;5071892;28;20020;-63
2022/04/17 05:18:32;;;;;;;3.28;1.42;;;13.70;12.30;;;;;;5051444;28;20366;-63
2022/04/17 05:20:58;;;;;;;4.13;2.28;;;13.70;12.20;;;;;;5051818;28;20070;-63
2022/04/17 05:23:27;;;;;;;6.82;1.83;;;13.80;12.10;;;;;;5050781;28;20048;-63
2022/04/17 05:25:55;;;;;;;5.68;1.85;;;13.80;12.00;;;;;;5033934;28;20025;-64
2022/04/17 05:28:22;;;;;;;2.47;1.33;;;13.80;11.90;;;;;;5066442;28;20033;-63
2022/04/17 05:30:48;;;;;;;3.28;1.98;;;13.80;11.70;;;;;;5070304;28;20097;-63
2022/04/17 05:33:18;;;;;;;1.88;1.60;;;13.70;11.70;;;;;;5037451;28;20148;-63
2022/04/17 05:35:44;;;;;;;3.72;1.92;;;13.80;11.60;;;;;;5051171;28;20028;-63
2022/04/17 05:38:10;;;;;;;3.63;1.42;;;13.80;11.30;;;;;;5068303;28;20025;-62
2022/04/17 05:40:43;;;;;;;6.57;1.92;;;13.80;11.10;;;;;;5057664;28;20024;-63
2022/04/17 05:43:09;;;;;;;5.50;1.73;;;13.80;11.10;;;;;;5060145;28;20032;-63
2022/04/17 05:45:36;;;;;;;4.85;2.30;;;13.80;11.20;;;;;;5042018;28;20025;-63
2022/04/17 05:48:02;;;;;;;3.90;1.80;;;13.80;11.00;;;;;;5061537;28;20068;-63
2022/04/17 05:50:28;;;;;;;6.25;1.80;;;13.70;10.70;;;;;;5054777;28;20118;-63
2022/04/17 05:52:55;;;;;;;5.35;1.88;;;13.70;10.70;;;;;;5065602;28;20104;-63
2022/04/17 05:55:21;;;;;;;3.13;1.70;;;13.70;10.60;;;;;;5075349;28;20091;-63
2022/04/17 05:57:46;;;;;;;4.15;1.88;;;13.70;10.20;;;;;;5045769;28;20035;-63
2022/04/17 06:00:12;;;;;;;6.13;2.40;;;13.80;10.20;;;;;;5055545;28;20025;-63
2022/04/17 06:02:39;;;;;;;3.10;2.00;;;13.70;9.90;;;;;;5054612;28;20067;-63
2022/04/17 06:05:06;;;;;;;5.35;1.98;;;13.70;10.00;;;;;;5037995;28;20086;-64
2022/04/17 06:07:32;;;;;;;8.18;2.22;;;13.60;9.90;;;;;;5060648;28;20174;-63
2022/04/17 06:10:02;;;;;;;5.45;2.70;;;13.70;9.70;;;;;;5075694;28;20108;-63
2022/04/17 06:12:28;;;;;;;6.28;2.20;;;13.60;9.80;;;;;;5071503;28;20050;-63
2022/04/17 06:14:54;;;;;;;5.95;2.35;;;13.70;9.80;;;;;;5057370;28;20048;-63
2022/04/17 06:17:20;;;;;;;5.82;2.70;;;13.70;9.70;;;;;;5067599;28;20435;-63
2022/04/17 06:19:45;;;;;;;6.00;2.00;;;13.70;9.50;;;;;;5037002;28;20116;-63
2022/04/17 06:22:12;;;;;;;3.03;2.05;;;13.80;9.60;;;;;;5053080;28;20037;-63
2022/04/17 06:24:38;;;;;;;6.53;2.25;;;13.80;9.50;;;;;;5054803;28;20508;-63
2022/04/17 06:27:03;;;;;;;4.35;2.15;;;13.90;9.50;;;;;;5051087;28;20061;-63
2022/04/17 06:29:29;;;;;;;7.57;2.35;;;13.80;9.20;;;;;;5034853;28;20339;-63
2022/04/17 06:31:55;;;;;;;6.97;2.72;;;13.80;9.10;;;;;;5037855;28;20021;-63
2022/04/17 06:34:21;;;;;;;3.22;2.30;;;13.80;8.60;;;;;;5075067;28;20028;-63
2022/04/17 06:36:46;;;;;;;6.90;2.35;;;13.80;9.00;;;;;;5054785;28;20458;-63
2022/04/17 06:39:12;;;;;;;7.63;3.05;;;13.70;8.40;;;;;;5036989;28;20104;-63
2022/04/17 06:41:38;;;;;;;7.53;2.42;;;13.80;8.50;;;;;;5035786;28;20117;-63
2022/04/17 06:44:04;;;;;;;5.10;2.47;;;13.90;8.60;;;;;;5053345;28;20397;-63
2022/04/17 06:46:29;;;;;;;6.78;2.72;;;14.00;8.70;;;;;;5063940;28;20031;-63
2022/04/17 06:48:55;;;;;;;5.68;2.20;;;14.00;8.70;;;;;;5055307;28;20056;-63
2022/04/17 06:51:24;;;;;;;3.58;2.08;;;14.00;8.70;;;;;;5054372;28;20021;-63
2022/04/17 06:53:51;;;;;;;9.80;2.33;;;14.00;8.20;;;;;;5069439;28;20048;-63
2022/04/17 06:56:18;;;;;;;5.93;2.30;;;14.00;8.10;;;;;;5071893;28;20052;-63
2022/04/17 06:58:47;;;;;;;5.35;2.33;;;14.10;7.70;;;;;;5050348;28;20028;-63
2022/04/17 07:01:17;;;;;;;3.95;2.00;;;14.10;7.80;;;;;;5072640;28;20032;-63
2022/04/17 07:03:46;;;;;;;6.85;1.73;;;14.10;7.60;;;;;;5057120;28;20041;-63
2022/04/17 07:06:12;;;;;;;8.25;2.03;;;14.10;6.60;;;;;;5054155;28;20025;-63
2022/04/17 07:08:38;;;;;;;5.03;1.95;;;14.10;6.60;;;;;;5066909;28;20024;-62
2022/04/17 07:11:04;;;;;;;5.38;2.08;;;14.10;6.60;;;;;;5072109;28;20040;-62
2022/04/17 07:13:30;;;;;;;6.78;2.30;;;14.20;6.50;;;;;;5069414;28;20203;-63
2022/04/17 07:15:56;;;;;;;4.65;1.90;;;14.10;5.90;;;;;;5052607;28;20336;-62
2022/04/17 07:18:22;;;;;;;5.60;2.38;;;14.10;6.20;;;;;;5051946;28;20040;-63
2022/04/17 07:20:48;;;;;;;7.90;2.10;;;14.10;6.40;;;;;;5050773;28;20040;-63
2022/04/17 07:23:14;;;;;;;6.13;2.47;;;14.20;6.00;;;;;;5051459;28;20033;-63
2022/04/17 07:25:39;;;;;;;9.02;2.65;;;14.20;5.70;;;;;;5050527;28;20029;-63
2022/04/17 07:28:12;;;;;;;5.07;2.08;;;14.30;5.90;;;;;;5033754;28;20124;-63
2022/04/17 07:30:38;;;;;;;5.85;2.10;;;14.40;5.60;;;;;;5058916;28;20158;-63
2022/04/17 07:33:04;;;;;;;6.57;2.67;;;14.30;5.40;;;;;;5070964;28;20111;-63
2022/04/17 07:35:30;;;;;;;5.38;2.33;;;14.10;5.90;;;;;;5061554;28;20025;-63
2022/04/17 07:37:58;;;;;;;6.07;2.28;;;14.20;5.50;;;;;;5055173;28;20040;-63
2022/04/17 07:40:28;;;;;;;7.82;2.20;;;14.20;5.50;;;;;;5062400;28;20381;-63
2022/04/17 07:42:59;;;;;;;2.92;1.98;;;14.20;5.40;;;;;;5050626;28;20041;-63
2022/04/17 07:45:26;;;;;;;5.28;1.90;;;14.30;5.70;;;;;;5050180;28;20032;-63
2022/04/17 07:47:52;;;;;;;6.75;2.22;;;14.30;5.50;;;;;;5062466;28;20040;-64
2022/04/17 07:50:25;;;;;;;7.47;2.60;;;14.40;6.10;;;;;;5057972;28;20506;-63
2022/04/17 07:52:53;;;;;;;5.00;2.45;;;14.50;6.00;;;;;;5063244;28;20039;-63
2022/04/17 07:55:21;;;;;;;7.25;2.03;;;14.50;6.10;;;;;;5051364;28;20412;-63
2022/04/17 08:00:22;;;;;;;7.35;2.05;;;14.50;5.00;;;;;;5051623;28;20082;-63
2022/04/17 08:03:10;;;;;;;7.97;2.63;;;14.50;5.40;;;;;;5068701;28;20468;-64
2022/04/17 08:05:40;;;;;;;4.57;2.53;;;14.50;5.20;;;;;;5055094;28;20355;-64
2022/04/17 08:08:08;;;;;;;8.85;3.03;;;14.50;4.70;;;;;;5051508;28;20079;-64
2022/04/17 08:10:34;;;;;;;5.50;2.40;;;14.50;4.80;;;;;;5052199;28;20017;-63
2022/04/17 08:13:00;;;;;;;7.68;2.40;;;14.40;5.20;;;;;;5050644;28;20546;-62
2022/04/17 08:15:26;;;;;;;4.53;2.10;;;14.50;5.30;;;;;;5052085;28;20120;-63
2022/04/17 08:17:52;;;;;;;5.20;2.15;;;14.70;5.20;;;;;;5068440;28;20028;-63
2022/04/17 08:20:17;;;;;;;7.13;2.28;;;14.80;4.80;;;;;;5054590;28;20020;-63
2022/04/17 08:22:43;;;;;;;8.70;2.72;;;14.80;5.60;;;;;;5054756;28;20040;-63
2022/04/17 08:25:09;;;;;;;6.75;2.70;;;14.90;5.10;;;;;;5052669;28;20021;-63
2022/04/17 08:27:43;;;;;;;7.72;2.95;;;14.90;4.80;;;;;;5065840;28;20083;-64
2022/04/17 08:30:09;;;;;;;5.65;2.70;;;14.90;4.80;;;;;;5072322;28;20493;-64
2022/04/17 08:32:34;;;;;;;5.35;2.42;;;14.80;4.80;;;;;;5055722;28;20025;-64
2022/04/17 08:35:00;;;;;;;6.78;2.47;;;14.80;4.80;;;;;;5052049;28;20171;-64
2022/04/17 08:37:25;;;;;;;6.50;3.17;;;14.90;5.30;;;;;;5057899;28;20029;-64
2022/04/17 08:39:51;;;;;;;7.43;3.10;;;14.90;4.60;;;;;;5052396;28;20502;-64
2022/04/17 08:42:18;;;;;;;8.73;2.55;;;15.00;4.90;;;;;;5062330;28;20096;-63
2022/04/17 08:44:44;;;;;;;5.07;2.58;;;15.00;4.80;;;;;;5072053;28;20038;-63
2022/04/17 08:47:10;;;;;;;6.10;2.83;;;15.00;4.70;;;;;;5056793;28;20021;-64
2022/04/17 08:49:37;;;;;;;4.30;2.47;;;15.10;4.70;;;;;;5034288;28;20055;-63
2022/04/17 08:52:08;;;;;;;5.20;2.47;;;15.20;4.80;;;;;;5059488;28;20105;-64
2022/04/17 08:54:34;;;;;;;6.30;2.20;;;15.20;4.60;;;;;;5071445;28;20055;-63
2022/04/17 08:57:03;;;;;;;4.38;2.78;;;15.10;4.50;;;;;;5045574;28;20041;-63
2022/04/17 08:59:28;;;;;;;11.73;2.40;;;15.20;5.00;;;;;;5031975;28;20087;-62
2022/04/17 09:01:54;;;;;;;7.00;2.60;;;15.30;4.50;;;;;;5036850;28;20029;-62
2022/04/17 09:04:20;;;;;;;6.38;2.58;;;15.40;4.70;;;;;;5050934;28;20040;-63
2022/04/17 09:06:47;;;;;;;6.05;2.72;;;15.40;4.60;;;;;;5045553;28;20486;-63
2022/04/17 09:09:13;;;;;;;5.25;2.50;;;15.40;5.30;;;;;;5051489;28;20032;-63
2022/04/17 09:11:39;;;;;;;8.68;3.17;;;15.50;4.80;;;;;;5048619;28;20025;-63
2022/04/17 09:14:05;;;;;;;7.88;2.63;;;15.60;4.80;;;;;;5050069;28;20386;-63
2022/04/17 09:16:38;;;;;;;4.82;2.33;;;15.50;4.70;;;;;;5032665;28;20021;-63
2022/04/17 09:19:16;;;;;;;5.40;2.65;;;15.60;5.20;;;;;;5050718;28;20421;-62
2022/04/17 09:21:42;;;;;;;5.97;2.47;;;15.60;4.70;;;;;;5051031;28;20377;-62
2022/04/17 09:24:22;;;;;;;7.82;2.80;;;15.60;4.80;;;;;;5033046;28;20489;-62
2022/04/17 09:26:52;;;;;;;4.30;2.35;;;15.70;5.00;;;;;;5050050;28;20025;-62
2022/04/17 09:29:19;;;;;;;6.03;2.83;;;15.70;5.00;;;;;;5051282;28;20025;-61
2022/04/17 09:31:45;;;;;;;5.35;2.63;;;15.80;4.90;;;;;;5046775;28;20024;-61
2022/04/17 09:34:11;;;;;;;5.82;3.30;;;15.70;4.90;;;;;;5051094;28;20044;-62
2022/04/17 09:36:37;;;;;;;4.97;2.90;;;15.80;4.70;;;;;;5049362;28;20105;-62
2022/04/17 09:39:12;;;;;;;5.63;2.75;;;15.90;4.80;;;;;;5050480;28;20171;-62
2022/04/17 09:41:51;;;;;;;3.60;2.97;;;16.00;4.70;;;;;;5061353;28;20060;-61
2022/04/17 09:44:46;;;;;;;5.88;2.88;;;16.00;4.70;;;;;;5071424;28;20047;-62
2022/04/17 09:47:20;;;;;;;9.98;2.67;;;16.10;4.40;;;;;;5069532;28;20473;-61
2022/04/17 09:50:05;;;;;;;7.65;3.00;;;16.00;4.40;;;;;;5071660;28;20207;-61
2022/04/17 09:52:39;;;;;;;6.63;2.72;;;16.20;4.20;;;;;;5058971;28;20027;-61
2022/04/17 09:55:05;;;;;;;5.68;2.35;;;16.10;4.50;;;;;;5051538;28;20041;-61
2022/04/17 09:57:36;;;;;;;6.43;2.47;;;16.10;4.30;;;;;;5051068;28;20025;-62
2022/04/17 10:00:20;;;;;;;5.00;2.80;;;16.20;4.30;;;;;;5037266;28;20033;-62
2022/04/17 10:02:47;;;;;;;5.68;2.90;;;16.20;4.10;;;;;;5054959;28;20060;-61
2022/04/17 10:05:15;;;;;;;7.78;3.13;;;16.30;4.10;;;;;;5049501;28;20130;-62
2022/04/17 10:07:42;;;;;;;8.65;2.97;;;16.40;4.00;;;;;;5041891;28;20021;-61
2022/04/17 10:10:11;;;;;;;6.40;2.58;;;16.50;3.90;;;;;;5059583;28;20032;-61
2022/04/17 10:12:39;;;;;;;3.47;2.50;;;16.50;3.80;;;;;;5050429;28;20083;-61
2022/04/17 10:15:07;;;;;;;8.15;3.13;;;16.50;3.90;;;;;;5031474;28;20461;-61
2022/04/17 10:17:36;;;;;;;7.18;2.40;;;16.50;3.90;;;;;;5050523;28;20061;-61
2022/04/17 10:20:08;;;;;;;6.90;3.50;;;16.60;3.70;;;;;;5071304;28;20035;-60
2022/04/17 10:22:35;;;;;;;5.60;2.85;;;16.70;5.40;;;;;;5061705;28;20043;-60
2022/04/17 10:25:03;;;;;;;5.38;3.15;;;16.70;4.00;;;;;;5034846;28;20483;-61
2022/04/17 10:27:51;;;;;;;8.52;2.72;;;16.70;4.10;;;;;;5026008;28;20453;-60
2022/04/17 10:30:23;;;;;;;7.07;3.25;;;16.80;4.30;;;;;;5052837;28;20021;-59
2022/04/17 10:33:10;;;;;;;13.50;3.38;;;16.80;4.00;;;;;;5052671;28;20041;-59
2022/04/17 10:36:00;;;;;;;7.15;3.55;;;17.00;4.60;;;;;;5072548;28;20029;-60
2022/04/17 10:38:31;;;;;;;4.07;2.60;;;17.00;4.30;;;;;;5072699;28;20425;-60
2022/04/17 10:41:05;;;;;;;7.00;3.03;;;17.10;3.60;;;;;;5062734;28;20028;-60
2022/04/17 10:43:51;;;;;;;11.80;3.25;;;17.20;4.00;;;;;;5062427;28;20055;-60
2022/04/17 10:46:19;;;;;;;6.90;3.05;;;17.00;3.40;;;;;;5025868;28;20063;-60
2022/04/17 10:48:48;;;;;;;9.32;3.28;;;17.20;4.20;;;;;;5048458;28;20120;-60
2022/04/17 10:51:23;;;;;;;6.47;3.08;;;17.30;3.80;;;;;;5045660;28;20371;-60
2022/04/17 10:54:14;;;;;;;7.78;4.70;;;17.30;3.90;;;;;;5031327;28;20029;-60
2022/04/17 10:57:01;;;;;;;6.57;3.50;;;17.40;3.50;;;;;;5042825;28;20459;-60
2022/04/17 10:59:32;;;;;;;7.90;3.42;;;17.50;3.50;;;;;;5052366;28;20032;-60
2022/04/17 11:02:20;;;;;;;5.85;3.35;;;17.60;3.50;;;;;;5046320;28;20078;-61
2022/04/17 11:04:53;;;;;;;10.55;3.63;;;17.60;3.20;;;;;;5034099;28;20078;-61
2022/04/17 11:07:22;;;;;;;4.43;2.83;;;17.70;3.40;;;;;;5050874;28;20414;-60
2022/04/17 11:09:48;;;;;;;5.72;3.40;;;17.90;3.50;;;;;;5051789;28;20586;-60
2022/04/17 11:12:27;;;;;;;5.57;2.92;;;18.00;3.50;;;;;;5052372;28;20374;-60
2022/04/17 11:14:56;;;;;;;7.47;3.70;;;18.10;3.20;;;;;;5051446;28;20056;-60
2022/04/17 11:17:23;;;;;;;6.05;3.72;;;18.10;3.40;;;;;;5051019;28;20063;-61
2022/04/17 11:19:51;;;;;;;3.58;3.25;;;18.00;3.30;;;;;;5052453;28;20029;-60
2022/04/17 11:22:17;;;;;;;5.03;3.47;;;18.10;3.40;;;;;;5052345;28;20028;-61
2022/04/17 11:24:55;;;;;;;5.72;3.25;;;18.20;3.50;;;;;;5051808;28;20119;-61
2022/04/17 11:27:42;;;;;;;8.38;3.60;;;18.40;3.40;;;;;;5049059;28;20065;-61
2022/04/17 11:30:14;;;;;;;5.28;3.55;;;18.50;3.20;;;;;;5052036;28;20039;-61
2022/04/17 11:32:39;;;;;;;5.28;3.13;;;18.50;3.20;;;;;;5051817;28;20116;-60
2022/04/17 11:35:09;;;;;;;6.63;3.30;;;18.50;2.90;;;;;;5053045;28;20463;-60
2022/04/17 11:37:35;;;;;;;5.80;3.55;;;18.50;2.90;;;;;;5056496;28;20024;-61
2022/04/17 11:40:14;;;;;;;6.40;3.35;;;18.70;2.90;;;;;;5050035;28;20035;-60
2022/04/17 11:42:46;;;;;;;6.70;4.43;;;18.90;2.50;;;;;;5047594;28;20033;-61
2022/04/17 11:45:14;;;;;;;7.82;3.85;;;19.00;2.10;;;;;;5044856;28;20086;-61
2022/04/17 11:47:42;;;;;;;5.97;3.55;;;19.10;2.40;;;;;;5052882;28;20036;-61
2022/04/17 11:50:09;;;;;;;5.38;3.92;;;19.30;2.00;;;;;;5033708;28;20028;-61
2022/04/17 11:52:36;;;;;;;5.88;3.67;;;19.60;1.70;;;;;;5056207;28;20036;-61
2022/04/17 11:55:02;;;;;;;4.90;3.42;;;;;;;;;;5047645;28;20064;-61
2022/04/17 11:57:30;;;;;;;5.05;3.53;;;19.90;6.60;;;;;;5047606;28;20906;-60
2022/04/17 11:59:57;;;;;;;8.20;3.63;;;20.00;1.40;;;;;;5046244;28;20033;-60
2022/04/17 12:02:24;;;;;;;4.43;3.90;;;20.00;1.30;;;;;;5049940;28;20343;-61
2022/04/17 12:04:52;;;;;;;8.02;4.20;;;20.70;5.40;;;;;;5046606;28;20467;-60
2022/04/17 12:07:20;;;;;;;5.78;3.72;;;20.80;1.00;;;;;;5051780;28;20024;-60
2022/04/17 12:09:46;;;;;;;6.55;3.67;;;;;;;;;;5034898;28;20116;-61
2022/04/17 12:12:14;;;;;;;6.28;4.03;;;21.30;1.00;;;;;;5051922;28;20552;-61
2022/04/17 12:14:41;;;;;;;5.70;3.88;;;21.90;1.00;;;;;;5052617;28;20021;-62
2022/04/17 12:17:07;;;;;;;7.43;4.40;;;22.50;13.20;;;;;;5051751;28;20060;-62
2022/04/17 12:19:33;;;;;;;6.80;3.42;;;23.10;3.60;;;;;;5053099;28;20146;-62
2022/04/17 12:21:58;;;;;;;6.03;4.47;;;23.40;1.00;;;;;;5070583;28;20435;-63
2022/04/17 12:24:27;;;;;;;6.45;4.05;;;24.20;1.00;;;;;;5039605;28;20037;-62
2022/04/17 12:26:54;;;;;;;7.05;4.00;;;24.40;1.00;;;;;;5034626;28;20021;-64
2022/04/17 12:29:20;;;;;;;4.75;4.22;;;24.70;1.00;;;;;;5052237;28;20120;-62
2022/04/17 12:31:46;;;;;;;7.53;4.13;;;25.00;1.00;;;;;;5052478;28;20017;-63
2022/04/17 12:34:19;;;;;;;6.05;3.85;;;25.50;1.00;;;;;;5052893;28;20040;-63
2022/04/17 12:36:45;;;;;;;4.50;3.75;;;27.80;1.00;;;;;;5035336;28;20049;-63
2022/04/17 12:39:11;;;;;;;6.78;3.83;;;30.00;1.00;;;;;;5051614;28;20074;-63
2022/04/17 12:41:42;;;;;;;7.20;3.83;;;30.80;1.00;;;;;;5051715;28;20119;-63
2022/04/17 12:44:08;;;;;;;5.47;4.05;;;34.50;1.00;;;;;;5051285;28;20036;-63
2022/04/17 12:46:35;;;;;;;7.05;4.40;;;38.00;1.00;;;;;;5063619;28;20021;-63
2022/04/17 12:49:09;;;;;;;4.45;4.07;;;39.00;1.00;;;;;;5038153;28;20079;-63
2022/04/17 12:51:40;;;;;;;5.97;3.80;;;39.10;1.00;;;;;;5050883;28;20025;-64
2022/04/17 12:54:10;;;;;;;6.03;4.20;;;40.20;1.00;;;;;;5051554;28;20037;-63
2022/04/17 12:56:37;;;;;;;7.40;4.80;;;39.00;1.00;;;;;;5048735;28;20057;-63
2022/04/17 12:59:03;;;;;;;6.00;4.38;;;37.10;1.00;;;;;;5057746;28;20033;-63
2022/04/17 13:01:30;;;;;;;5.05;4.55;;;34.90;1.00;;;;;;5072219;28;20446;-63
2022/04/17 13:04:19;;;;;;;4.22;3.42;;;33.90;1.00;;;;;;5046333;28;20041;-63
2022/04/17 13:06:45;;;;;;;5.82;4.22;;;;;;;;;;5052393;28;20021;-63
2022/04/17 13:09:18;;;;;;;6.18;4.05;;;33.90;1.00;;;;;;5048764;28;20047;-63
2022/04/17 13:11:51;;;;;;;8.50;4.68;;;34.60;1.00;;;;;;5070965;28;20031;-63
2022/04/17 13:14:19;;;;;;;7.32;4.50;;;32.50;1.00;;;;;;5071854;28;20020;-63